Time;durP1;ratioP1;P1;durP2;ratioP2;P2;SDS_P1;SDS_P2;PMS_P1;PMS_P2;Temp;Humidity;BMP_temperature;BMP_pressure;BME280_temperature;BME280_humidity;BME280_pressure;Samples;Min_cycle;Max_cycle;Signal;HPM_P1;HPM_P2
2023/11/11 00:00:08;;;;;;;3.77;0.53;;;7.60;1.00;;;;;;5014731;28;20416;-70
2023/11/11 00:02:34;;;;;;;3.80;0.50;;;7.50;1.00;;;;;;5030500;28;20809;-70
2023/11/11 00:05:00;;;;;;;6.80;0.50;;;7.60;1.00;;;;;;5027634;28;20416;-71
2023/11/11 00:07:26;;;;;;;3.70;0.40;;;7.60;1.00;;;;;;5027843;28;20484;-70
2023/11/11 00:09:51;;;;;;;3.97;0.40;;;7.60;1.00;;;;;;5030163;28;20414;-71
2023/11/11 00:12:17;;;;;;;3.70;0.30;;;7.60;1.00;;;;;;5028996;28;20402;-71
2023/11/11 00:14:43;;;;;;;3.50;0.20;;;7.50;1.00;;;;;;5028861;28;20474;-70
2023/11/11 00:17:09;;;;;;;4.10;0.40;;;7.50;1.00;;;;;;5028829;28;21055;-71
2023/11/11 00:19:36;;;;;;;3.90;0.50;;;7.60;1.00;;;;;;5027767;28;20398;-70
2023/11/11 00:22:02;;;;;;;4.30;0.57;;;7.60;1.00;;;;;;5028343;28;20438;-70
2023/11/11 00:24:27;;;;;;;6.10;0.40;;;7.70;1.00;;;;;;5028232;28;20458;-70
2023/11/11 00:26:53;;;;;;;3.95;0.30;;;7.70;1.00;;;;;;5029582;28;20970;-69
2023/11/11 00:29:18;;;;;;;3.90;0.33;;;7.60;1.00;;;;;;5029583;28;20393;-69
2023/11/11 00:31:47;;;;;;;3.60;0.40;;;7.60;1.00;;;;;;5025098;28;20413;-70
2023/11/11 00:34:15;;;;;;;3.95;0.60;;;7.50;1.00;;;;;;5030225;28;20403;-69
2023/11/11 00:36:40;;;;;;;3.50;0.20;;;7.50;1.00;;;;;;5029302;28;20450;-69
2023/11/11 00:39:12;;;;;;;3.60;0.38;;;7.70;1.00;;;;;;5022906;28;20573;-70
2023/11/11 00:41:38;;;;;;;3.60;0.40;;;7.70;1.00;;;;;;5026170;28;20395;-69
2023/11/11 00:44:08;;;;;;;4.15;0.60;;;7.70;1.00;;;;;;5029435;28;20486;-69
2023/11/11 00:46:38;;;;;;;4.30;1.10;;;7.70;1.00;;;;;;5029469;28;20431;-70
2023/11/11 00:49:07;;;;;;;3.60;0.30;;;7.70;1.00;;;;;;5029938;28;20398;-70
2023/11/11 00:51:35;;;;;;;5.10;0.90;;;7.70;1.00;;;;;;5027938;28;20417;-70
2023/11/11 00:54:01;;;;;;;3.70;0.30;;;7.70;13.30;;;;;;5028542;28;20484;-70
2023/11/11 00:56:28;;;;;;;5.30;0.80;;;7.70;19.70;;;;;;5026372;28;20855;-70
2023/11/11 00:58:54;;;;;;;3.63;0.43;;;7.60;99.90;;;;;;5029527;28;20405;-71
2023/11/11 01:01:19;;;;;;;3.60;0.30;;;7.60;99.90;;;;;;5024456;28;20499;-70
2023/11/11 01:03:45;;;;;;;4.33;0.60;;;7.60;99.90;;;;;;5025336;28;20407;-71
2023/11/11 01:06:12;;;;;;;3.80;0.50;;;7.60;99.90;;;;;;5027565;28;20422;-70
2023/11/11 01:08:37;;;;;;;3.95;0.30;;;7.60;99.90;;;;;;5028837;28;20453;-70
2023/11/11 01:11:03;;;;;;;3.83;0.50;;;7.70;99.90;;;;;;5029337;28;21943;-70
2023/11/11 01:13:28;;;;;;;3.70;0.40;;;7.70;99.90;;;;;;5028879;28;20407;-70
2023/11/11 01:15:59;;;;;;;3.60;0.40;;;7.70;99.90;;;;;;5028731;28;20434;-70
2023/11/11 01:18:29;;;;;;;3.50;0.30;;;7.80;99.90;;;;;;5026879;28;20843;-71
2023/11/11 01:21:02;;;;;;;3.60;0.40;;;7.70;99.90;;;;;;5026890;28;20413;-70
2023/11/11 01:23:30;;;;;;;3.50;0.40;;;7.70;99.90;;;;;;5028979;28;20395;-70
2023/11/11 01:25:55;;;;;;;3.40;0.20;;;7.80;1.00;;;;;;5028958;28;20434;-70
2023/11/11 01:28:22;;;;;;;3.40;0.20;;;7.80;1.00;;;;;;5028472;28;20454;-70
2023/11/11 01:30:47;;;;;;;3.80;0.30;;;7.90;1.00;;;;;;5028920;28;20763;-70
2023/11/11 01:33:13;;;;;;;3.40;0.20;;;7.80;1.00;;;;;;5024834;28;20393;-70
2023/11/11 01:35:38;;;;;;;3.50;0.30;;;7.80;1.00;;;;;;5018359;28;20391;-70
2023/11/11 01:38:04;;;;;;;3.90;0.40;;;7.80;1.00;;;;;;5028199;28;20434;-70
2023/11/11 01:40:29;;;;;;;3.70;0.30;;;7.80;1.00;;;;;;5028672;28;20478;-70
2023/11/11 01:42:58;;;;;;;3.40;0.20;;;7.80;99.90;;;;;;5028867;28;20461;-70
2023/11/11 01:45:24;;;;;;;4.20;0.30;;;7.80;99.90;;;;;;5027827;28;20553;-70
2023/11/11 01:47:50;;;;;;;3.40;0.20;;;7.80;99.90;;;;;;5027634;28;20879;-70
2023/11/11 01:50:17;;;;;;;3.40;0.20;;;7.90;99.90;;;;;;5029450;28;20426;-70
2023/11/11 01:52:43;;;;;;;5.20;0.50;;;7.80;99.90;;;;;;5029706;28;20410;-70
2023/11/11 01:55:09;;;;;;;3.60;0.40;;;7.90;99.90;;;;;;5031174;28;20399;-70
2023/11/11 01:57:35;;;;;;;3.60;0.30;;;7.80;99.90;;;;;;5032096;28;20504;-70
2023/11/11 02:00:06;;;;;;;3.70;0.30;;;7.80;99.90;;;;;;5032001;28;20449;-70
2023/11/11 02:02:32;;;;;;;3.50;0.20;;;7.80;99.90;;;;;;5031964;28;20403;-70
2023/11/11 02:04:58;;;;;;;3.70;0.30;;;7.70;99.90;;;;;;5015875;28;20404;-70
2023/11/11 02:07:24;;;;;;;3.50;0.20;;;7.70;99.90;;;;;;5031314;28;20767;-70
2023/11/11 02:09:49;;;;;;;3.60;0.30;;;7.70;99.90;;;;;;5032548;28;20775;-70
2023/11/11 02:12:17;;;;;;;3.60;0.20;;;7.60;99.90;;;;;;5023563;28;20755;-71
2023/11/11 02:14:43;;;;;;;6.20;0.50;;;7.60;99.90;;;;;;5031689;28;20387;-69
2023/11/11 02:17:08;;;;;;;3.60;0.23;;;7.50;99.90;;;;;;5027348;28;20406;-70
2023/11/11 02:19:34;;;;;;;3.50;0.20;;;7.60;1.00;;;;;;5031490;28;20411;-70
2023/11/11 02:21:59;;;;;;;3.50;0.20;;;7.50;1.00;;;;;;5031954;28;20398;-70
2023/11/11 02:24:26;;;;;;;3.70;0.20;;;7.40;1.00;;;;;;5031917;28;20391;-70
2023/11/11 02:26:52;;;;;;;3.60;0.20;;;7.40;1.00;;;;;;5031140;28;20419;-70
2023/11/11 02:29:18;;;;;;;3.50;0.20;;;7.40;1.00;;;;;;5031645;28;20465;-70
2023/11/11 02:31:43;;;;;;;3.50;0.20;;;7.40;1.00;;;;;;5031732;28;20399;-70
2023/11/11 02:34:09;;;;;;;3.90;0.40;;;7.20;1.00;;;;;;5030210;28;20408;-70
2023/11/11 02:36:34;;;;;;;4.10;0.40;;;7.10;1.00;;;;;;5030003;28;20490;-70
2023/11/11 02:39:01;;;;;;;3.50;0.20;;;7.20;1.00;;;;;;5030486;28;20403;-70
2023/11/11 02:41:27;;;;;;;3.50;0.20;;;7.10;1.00;;;;;;5027755;28;20402;-70
2023/11/11 02:43:52;;;;;;;3.50;0.20;;;7.10;1.00;;;;;;5031232;28;20445;-70
2023/11/11 02:46:18;;;;;;;3.60;0.20;;;7.00;22.50;;;;;;5029518;28;20423;-70
2023/11/11 02:48:43;;;;;;;3.50;0.20;;;7.00;99.90;;;;;;5027790;28;20427;-70
2023/11/11 02:51:09;;;;;;;3.50;0.20;;;6.90;1.00;;;;;;5031514;28;20411;-70
2023/11/11 02:53:35;;;;;;;3.50;0.20;;;6.90;1.00;;;;;;5030726;28;20434;-70
2023/11/11 02:56:00;;;;;;;3.80;0.30;;;6.80;1.00;;;;;;5031489;28;20407;-70
2023/11/11 02:58:26;;;;;;;3.80;0.40;;;6.80;99.90;;;;;;5030293;28;20411;-70
2023/11/11 03:00:53;;;;;;;3.60;0.40;;;6.80;99.90;;;;;;5028856;28;20452;-70
2023/11/11 03:03:19;;;;;;;3.50;0.30;;;6.70;99.90;;;;;;5020028;28;20867;-70
2023/11/11 03:05:45;;;;;;;3.40;0.20;;;6.70;99.90;;;;;;5029397;28;20410;-70
2023/11/11 03:08:11;;;;;;;3.50;0.30;;;6.70;99.90;;;;;;5030220;28;20505;-70
2023/11/11 03:10:36;;;;;;;3.90;0.80;;;6.80;99.90;;;;;;5031509;28;20403;-70
2023/11/11 03:13:02;;;;;;;3.60;0.40;;;6.90;99.90;;;;;;5030312;28;20923;-69
2023/11/11 03:15:27;;;;;;;3.70;0.40;;;7.00;99.90;;;;;;5031221;28;20399;-71
2023/11/11 03:17:53;;;;;;;3.50;0.40;;;7.00;9.70;;;;;;5029794;28;20427;-70
2023/11/11 03:20:20;;;;;;;4.17;0.40;;;7.10;1.00;;;;;;5031034;28;20736;-70
2023/11/11 03:22:46;;;;;;;3.65;0.50;;;7.20;1.00;;;;;;5031169;28;20435;-70
2023/11/11 03:25:12;;;;;;;3.40;0.30;;;7.20;1.00;;;;;;5031778;28;20951;-70
2023/11/11 03:27:38;;;;;;;4.60;0.90;;;7.30;1.00;;;;;;5029268;28;20423;-70
2023/11/11 03:30:04;;;;;;;3.80;0.30;;;7.30;99.90;;;;;;5030892;28;20810;-70
2023/11/11 03:32:29;;;;;;;3.70;0.40;;;7.30;99.90;;;;;;5030050;28;20810;-70
2023/11/11 03:34:55;;;;;;;4.33;0.60;;;7.30;99.90;;;;;;5030962;28;20401;-70
2023/11/11 03:37:21;;;;;;;3.40;0.30;;;7.30;99.90;;;;;;5031327;28;20506;-70
2023/11/11 03:39:46;;;;;;;3.50;0.35;;;7.30;99.90;;;;;;5029263;28;20406;-70
2023/11/11 03:42:12;;;;;;;3.40;0.33;;;7.30;99.90;;;;;;5031349;28;20450;-70
2023/11/11 03:44:38;;;;;;;3.40;0.30;;;7.30;99.90;;;;;;5030667;28;20925;-70
2023/11/11 03:47:04;;;;;;;3.55;0.47;;;7.40;99.90;;;;;;5030575;28;20427;-69
2023/11/11 03:49:29;;;;;;;3.70;0.40;;;7.30;99.90;;;;;;5029456;28;20418;-70
2023/11/11 03:51:55;;;;;;;3.40;0.30;;;7.40;99.90;;;;;;5030362;28;20399;-70
2023/11/11 03:54:21;;;;;;;3.67;0.50;;;7.40;99.90;;;;;;5030398;28;20763;-70
2023/11/11 03:56:48;;;;;;;3.50;0.40;;;7.40;78.70;;;;;;5030194;28;20909;-70
2023/11/11 03:59:14;;;;;;;4.80;0.80;;;7.40;32.10;;;;;;5029430;28;20464;-70
2023/11/11 04:01:39;;;;;;;3.93;0.80;;;7.40;72.10;;;;;;5030400;28;20407;-70
2023/11/11 04:04:05;;;;;;;4.05;0.63;;;7.40;1.00;;;;;;5025796;28;20522;-70
2023/11/11 04:06:30;;;;;;;3.50;0.40;;;7.40;1.00;;;;;;5029275;28;20493;-70
2023/11/11 04:08:56;;;;;;;15.40;0.90;;;7.40;1.00;;;;;;5027980;28;20491;-70
2023/11/11 04:11:23;;;;;;;3.50;0.57;;;7.40;1.00;;;;;;5029826;28;20831;-70
2023/11/11 04:13:50;;;;;;;6.10;1.00;;;7.40;1.00;;;;;;5029730;28;20778;-70
2023/11/11 04:16:15;;;;;;;4.40;0.60;;;7.30;33.30;;;;;;5029082;28;20403;-70
2023/11/11 04:18:41;;;;;;;4.22;0.43;;;7.30;20.60;;;;;;5028580;28;20415;-70
2023/11/11 04:21:08;;;;;;;3.53;0.40;;;7.30;12.30;;;;;;5028776;28;20403;-69
2023/11/11 04:23:34;;;;;;;4.50;1.10;;;7.30;99.90;;;;;;5025958;28;20415;-70
2023/11/11 04:26:02;;;;;;;3.70;0.70;;;7.30;99.90;;;;;;5029768;28;20921;-70
2023/11/11 04:28:28;;;;;;;3.90;0.90;;;7.20;99.90;;;;;;5029228;28;20451;-70
2023/11/11 04:30:53;;;;;;;3.65;0.60;;;7.20;99.90;;;;;;5028279;28;20446;-70
2023/11/11 04:33:19;;;;;;;3.50;0.40;;;7.30;99.90;;;;;;5028640;28;20720;-70
2023/11/11 04:35:45;;;;;;;4.10;0.50;;;7.20;99.90;;;;;;5029910;28;20460;-71
2023/11/11 04:38:11;;;;;;;4.50;0.70;;;7.30;99.90;;;;;;5029287;28;20416;-69
2023/11/11 04:40:36;;;;;;;3.60;0.50;;;7.20;99.90;;;;;;5029733;28;20403;-70
2023/11/11 04:43:02;;;;;;;5.57;0.60;;;7.30;99.90;;;;;;5029607;28;20439;-70
2023/11/11 04:45:29;;;;;;;4.10;0.80;;;7.30;99.90;;;;;;5028518;28;20403;-70
2023/11/11 04:47:55;;;;;;;3.92;0.60;;;7.20;99.90;;;;;;5029222;28;20450;-70
2023/11/11 04:50:21;;;;;;;3.90;0.60;;;7.30;99.90;;;;;;5029601;28;20744;-70
2023/11/11 04:52:46;;;;;;;3.60;0.43;;;7.30;99.90;;;;;;5013782;28;20459;-70
2023/11/11 04:55:12;;;;;;;3.60;0.50;;;7.30;99.90;;;;;;5028612;28;20403;-70
2023/11/11 04:57:38;;;;;;;4.20;0.60;;;7.20;99.90;;;;;;5028128;28;20411;-70
2023/11/11 05:00:06;;;;;;;3.97;0.90;;;7.20;99.90;;;;;;5027561;28;20445;-70
2023/11/11 05:02:32;;;;;;;3.42;0.30;;;7.20;99.90;;;;;;5024858;28;20463;-70
2023/11/11 05:04:58;;;;;;;3.90;0.50;;;7.30;99.90;;;;;;5027902;28;20808;-70
2023/11/11 05:07:23;;;;;;;3.60;0.70;;;7.20;99.90;;;;;;5027871;28;20510;-70
2023/11/11 05:09:49;;;;;;;4.25;0.60;;;7.20;99.90;;;;;;5029184;28;20441;-70
2023/11/11 05:12:15;;;;;;;4.80;0.80;;;7.30;99.90;;;;;;5028720;28;20582;-70
2023/11/11 05:14:41;;;;;;;4.15;0.70;;;7.20;99.90;;;;;;5029372;28;20398;-70
2023/11/11 05:17:09;;;;;;;4.50;0.70;;;7.30;99.90;;;;;;5028112;28;20426;-70
2023/11/11 05:19:34;;;;;;;3.80;0.70;;;7.20;99.90;;;;;;5027444;28;20434;-70
2023/11/11 05:22:02;;;;;;;6.10;1.10;;;7.10;99.90;;;;;;5028076;28;20968;-70
2023/11/11 05:24:28;;;;;;;6.13;0.80;;;7.10;99.90;;;;;;5027931;28;20407;-70
2023/11/11 05:26:54;;;;;;;4.38;1.05;;;7.20;99.90;;;;;;5029051;28;20426;-70
2023/11/11 05:29:20;;;;;;;3.80;0.70;;;7.10;99.90;;;;;;5027280;28;20407;-70
2023/11/11 05:31:46;;;;;;;3.50;0.40;;;7.10;35.00;;;;;;5028439;28;20415;-70
2023/11/11 05:34:12;;;;;;;4.70;1.00;;;7.10;8.90;;;;;;5028249;28;20469;-69
2023/11/11 05:36:37;;;;;;;4.00;0.80;;;7.10;35.60;;;;;;5028044;28;20395;-70
2023/11/11 05:39:03;;;;;;;4.80;0.70;;;7.10;1.00;;;;;;5028525;28;20414;-71
2023/11/11 05:41:30;;;;;;;3.60;0.50;;;7.20;1.00;;;;;;5027809;28;20401;-70
2023/11/11 05:43:56;;;;;;;4.22;0.73;;;7.20;1.00;;;;;;5028529;28;20403;-70
2023/11/11 05:46:24;;;;;;;3.80;0.60;;;7.10;1.00;;;;;;5026775;28;22343;-70
2023/11/11 05:48:49;;;;;;;3.72;0.60;;;7.10;1.00;;;;;;5016120;28;20409;-70
2023/11/11 05:51:15;;;;;;;4.10;0.75;;;7.10;1.00;;;;;;5027040;28;20498;-70
2023/11/11 05:53:41;;;;;;;3.80;0.70;;;7.00;1.00;;;;;;5018260;28;20795;-70
2023/11/11 05:56:09;;;;;;;4.93;0.60;;;7.10;1.00;;;;;;5027400;28;20399;-70
2023/11/11 05:58:35;;;;;;;3.80;0.43;;;6.90;1.00;;;;;;5028019;28;20871;-70
2023/11/11 06:01:07;;;;;;;5.30;0.98;;;6.90;1.00;;;;;;5011645;28;20439;-70
2023/11/11 06:03:32;;;;;;;4.60;0.80;;;6.90;1.00;;;;;;5014240;28;20423;-70
2023/11/11 06:05:58;;;;;;;3.90;0.60;;;6.90;1.00;;;;;;5028434;28;20442;-69
2023/11/11 06:08:23;;;;;;;5.03;1.83;;;6.90;1.00;;;;;;5028687;28;20911;-70
2023/11/11 06:10:49;;;;;;;5.00;1.00;;;6.90;1.00;;;;;;5018637;28;20392;-69
2023/11/11 06:13:14;;;;;;;3.60;0.50;;;6.90;1.00;;;;;;5008926;28;20393;-70
2023/11/11 06:15:40;;;;;;;3.90;0.70;;;6.80;1.00;;;;;;5014392;28;20461;-70
2023/11/11 06:18:06;;;;;;;4.27;0.90;;;6.80;1.00;;;;;;5026566;28;20850;-70
2023/11/11 06:20:33;;;;;;;4.10;0.60;;;6.70;1.00;;;;;;5027683;28;20414;-70
2023/11/11 06:22:59;;;;;;;4.30;0.70;;;6.80;1.00;;;;;;5018769;28;20895;-70
2023/11/11 06:25:24;;;;;;;3.70;0.60;;;6.80;1.00;;;;;;5021326;28;20407;-70
2023/11/11 06:27:51;;;;;;;4.68;0.73;;;6.90;1.00;;;;;;5028350;28;20425;-70
2023/11/11 06:30:19;;;;;;;4.57;0.77;;;6.90;1.00;;;;;;5028360;28;20394;-70
2023/11/11 06:32:45;;;;;;;3.80;0.80;;;6.90;1.00;;;;;;5027007;28;20411;-70
2023/11/11 06:35:12;;;;;;;4.10;0.80;;;7.00;1.00;;;;;;5029330;28;20893;-70
2023/11/11 06:37:39;;;;;;;3.90;0.73;;;6.90;1.00;;;;;;5028924;28;20480;-70
2023/11/11 06:40:06;;;;;;;4.55;0.73;;;6.90;1.00;;;;;;5029637;28;20486;-69
2023/11/11 06:42:32;;;;;;;4.15;1.00;;;7.00;1.00;;;;;;5027554;28;20421;-70
2023/11/11 06:44:59;;;;;;;6.27;0.80;;;7.00;1.00;;;;;;5031419;28;20422;-70
2023/11/11 06:47:24;;;;;;;4.70;0.70;;;7.10;1.00;;;;;;5032463;28;20855;-70
2023/11/11 06:49:50;;;;;;;4.47;0.80;;;7.10;1.00;;;;;;5029136;28;20609;-70
2023/11/11 06:52:15;;;;;;;4.30;0.87;;;7.10;1.00;;;;;;5028305;28;20914;-70
2023/11/11 06:54:41;;;;;;;4.57;1.08;;;7.00;1.00;;;;;;5012822;28;20393;-70
2023/11/11 06:57:06;;;;;;;4.00;0.50;;;7.00;1.00;;;;;;5012264;28;20388;-70
2023/11/11 06:59:32;;;;;;;4.60;1.10;;;7.00;1.00;;;;;;5022260;28;20897;-70
2023/11/11 07:01:58;;;;;;;3.90;1.00;;;7.00;1.00;;;;;;5032982;28;20390;-70
2023/11/11 07:04:24;;;;;;;4.13;0.80;;;7.00;1.00;;;;;;5033405;28;20886;-70
2023/11/11 07:06:49;;;;;;;3.90;0.60;;;7.00;1.00;;;;;;5015725;28;20428;-70
2023/11/11 07:09:14;;;;;;;4.63;0.90;;;7.00;1.00;;;;;;5022072;28;20407;-70
2023/11/11 07:11:40;;;;;;;3.73;0.53;;;6.90;1.00;;;;;;5032335;28;20482;-70
2023/11/11 07:14:08;;;;;;;3.90;0.60;;;7.00;1.00;;;;;;5031563;28;20831;-70
2023/11/11 07:16:34;;;;;;;3.83;0.77;;;7.10;1.00;;;;;;5031932;28;20383;-70
2023/11/11 07:19:00;;;;;;;6.80;1.27;;;7.10;1.00;;;;;;5029576;28;21009;-70
2023/11/11 07:21:26;;;;;;;4.20;0.80;;;7.10;1.00;;;;;;5020978;28;20422;-71
2023/11/11 07:23:55;;;;;;;4.00;0.85;;;7.10;1.00;;;;;;5019605;28;20423;-70
2023/11/11 07:26:20;;;;;;;4.03;0.80;;;7.10;1.00;;;;;;5012856;28;20409;-70
2023/11/11 07:28:48;;;;;;;3.85;0.75;;;7.20;1.00;;;;;;5024062;28;20430;-70
2023/11/11 07:31:17;;;;;;;4.00;0.63;;;7.20;1.00;;;;;;5024394;28;20407;-70
2023/11/11 07:33:43;;;;;;;5.65;1.23;;;7.20;1.00;;;;;;5026434;28;20408;-70
2023/11/11 07:36:12;;;;;;;4.40;1.20;;;7.20;1.00;;;;;;5024329;28;20921;-70
2023/11/11 07:38:42;;;;;;;4.40;0.80;;;7.40;1.00;;;;;;5027379;28;20413;-69
2023/11/11 07:41:08;;;;;;;4.30;1.00;;;7.40;1.00;;;;;;5026699;28;20469;-70
2023/11/11 07:43:35;;;;;;;5.20;1.30;;;7.40;1.00;;;;;;5020872;28;20781;-70
2023/11/11 07:46:05;;;;;;;3.90;0.60;;;7.50;1.00;;;;;;5020623;28;20415;-69
2023/11/11 07:48:31;;;;;;;4.65;0.90;;;7.40;1.00;;;;;;5012465;28;20430;-69
2023/11/11 07:50:57;;;;;;;8.88;1.98;;;7.40;1.00;;;;;;5028107;28;20918;-69
2023/11/11 07:53:22;;;;;;;10.10;1.27;;;7.50;1.00;;;;;;5024023;28;20484;-69
2023/11/11 07:55:48;;;;;;;8.77;1.43;;;7.50;1.00;;;;;;5021266;28;20393;-69
2023/11/11 07:58:14;;;;;;;5.40;1.08;;;7.50;1.00;;;;;;5018348;28;20397;-70
2023/11/11 08:00:39;;;;;;;3.73;0.60;;;7.40;1.00;;;;;;5027141;28;20415;-68
2023/11/11 08:03:05;;;;;;;7.10;0.80;;;7.30;1.00;;;;;;5021125;28;20877;-70
2023/11/11 08:05:32;;;;;;;4.90;1.30;;;7.30;1.00;;;;;;5019132;28;20402;-69
2023/11/11 08:07:58;;;;;;;4.13;0.73;;;7.40;1.00;;;;;;5025392;28;20447;-69
2023/11/11 08:10:25;;;;;;;5.40;0.90;;;7.50;1.00;;;;;;5017420;28;20450;-69
2023/11/11 08:12:52;;;;;;;5.03;1.10;;;7.50;1.00;;;;;;5022563;28;20413;-70
2023/11/11 08:15:19;;;;;;;4.20;1.00;;;7.60;1.00;;;;;;5024204;28;20438;-69
2023/11/11 08:17:47;;;;;;;4.47;1.00;;;7.60;1.00;;;;;;5024832;28;20810;-70
2023/11/11 08:20:15;;;;;;;6.38;1.33;;;7.70;1.00;;;;;;5022012;28;20465;-69
2023/11/11 08:22:44;;;;;;;4.00;0.90;;;7.90;1.00;;;;;;5022500;28;20914;-69
2023/11/11 08:25:14;;;;;;;4.70;0.80;;;7.80;1.00;;;;;;5024508;28;20897;-69
2023/11/11 08:27:41;;;;;;;6.70;1.40;;;7.90;1.00;;;;;;5018116;28;20934;-69
2023/11/11 08:30:10;;;;;;;6.40;1.10;;;7.90;1.00;;;;;;5020657;28;20410;-70
2023/11/11 08:32:36;;;;;;;4.75;0.70;;;8.10;1.00;;;;;;5024851;28;20413;-69
2023/11/11 08:35:01;;;;;;;4.80;1.33;;;7.90;1.00;;;;;;5015660;28;20487;-69
2023/11/11 08:37:27;;;;;;;6.83;1.40;;;7.80;1.00;;;;;;5023951;28;20987;-71
2023/11/11 08:39:53;;;;;;;5.38;1.38;;;7.80;1.00;;;;;;5021964;28;20403;-70
2023/11/11 08:42:19;;;;;;;5.13;1.52;;;7.90;1.00;;;;;;5022610;28;20504;-71
2023/11/11 08:44:44;;;;;;;11.60;1.40;;;7.90;1.00;;;;;;5016917;28;20484;-68
2023/11/11 08:47:10;;;;;;;6.32;1.38;;;8.00;1.00;;;;;;5026156;28;20823;-69
2023/11/11 08:49:35;;;;;;;4.70;0.70;;;8.10;1.00;;;;;;5019823;28;20418;-69
2023/11/11 08:52:04;;;;;;;4.28;1.00;;;7.90;99.90;;;;;;5018954;28;21474;-70
2023/11/11 08:54:30;;;;;;;4.30;0.90;;;8.00;99.90;;;;;;5015441;28;20422;-69
2023/11/11 08:56:56;;;;;;;4.30;0.90;;;8.00;99.90;;;;;;5019773;28;20840;-70
2023/11/11 08:59:21;;;;;;;5.10;1.17;;;8.00;99.90;;;;;;5009998;28;20405;-70
2023/11/11 09:01:47;;;;;;;4.10;0.70;;;8.30;1.00;;;;;;5024061;28;20812;-70
2023/11/11 09:04:13;;;;;;;5.50;1.10;;;8.20;99.90;;;;;;5025616;28;20392;-70
2023/11/11 09:06:39;;;;;;;3.90;0.60;;;8.30;1.00;;;;;;5013463;28;20452;-69
2023/11/11 09:09:04;;;;;;;4.20;1.00;;;8.20;99.90;;;;;;5017763;28;20401;-69
2023/11/11 09:11:36;;;;;;;4.10;0.80;;;8.10;99.90;;;;;;5018697;28;20932;-70
2023/11/11 09:14:05;;;;;;;5.18;1.10;;;8.10;99.90;;;;;;5024672;28;20399;-70
2023/11/11 09:16:32;;;;;;;4.50;0.90;;;8.30;99.90;;;;;;5023260;28;20399;-69
2023/11/11 09:19:03;;;;;;;4.83;1.20;;;8.30;99.90;;;;;;5021583;28;20421;-70
2023/11/11 09:21:31;;;;;;;4.45;1.13;;;8.30;99.90;;;;;;5021974;28;20415;-69
2023/11/11 09:23:58;;;;;;;4.78;1.10;;;8.40;99.90;;;;;;5022429;28;20407;-76
2023/11/11 09:26:24;;;;;;;4.60;1.00;;;8.50;99.90;;;;;;5019519;28;20812;-77
2023/11/11 09:28:50;;;;;;;4.20;0.90;;;8.80;99.90;;;;;;5024516;28;20407;-78
2023/11/11 09:31:16;;;;;;;9.70;1.08;;;9.30;99.90;;;;;;5028799;28;20771;-76
2023/11/11 09:33:42;;;;;;;4.50;0.70;;;9.40;99.90;;;;;;5016433;28;20400;-76
2023/11/11 09:36:08;;;;;;;7.60;0.80;;;9.40;99.90;;;;;;5026362;28;20421;-77
2023/11/11 09:38:34;;;;;;;4.65;0.88;;;9.20;99.90;;;;;;5015254;28;20901;-76
2023/11/11 09:41:00;;;;;;;4.60;0.90;;;9.40;99.90;;;;;;5023219;28;20402;-69
2023/11/11 09:43:25;;;;;;;4.28;0.90;;;9.20;99.90;;;;;;5018611;28;20401;-69
2023/11/11 09:45:51;;;;;;;5.60;1.00;;;9.60;99.90;;;;;;5013622;28;20839;-69
2023/11/11 09:48:17;;;;;;;4.60;1.20;;;9.70;99.90;;;;;;5019902;28;20834;-69
2023/11/11 09:50:44;;;;;;;4.60;1.08;;;9.80;99.90;;;;;;5010643;28;20463;-69
2023/11/11 09:53:12;;;;;;;4.85;0.93;;;10.20;99.90;;;;;;5015014;28;20404;-69
2023/11/11 09:55:38;;;;;;;5.00;1.23;;;10.40;99.90;;;;;;5018418;28;20409;-69
2023/11/11 09:58:06;;;;;;;4.00;0.60;;;10.40;99.90;;;;;;5018403;28;20820;-69
2023/11/11 10:00:32;;;;;;;4.68;1.08;;;11.10;99.90;;;;;;5025040;28;20617;-70
2023/11/11 10:02:58;;;;;;;5.13;1.10;;;11.30;99.90;;;;;;5022043;28;20503;-69
2023/11/11 10:05:24;;;;;;;7.50;1.20;;;10.60;99.90;;;;;;5019547;28;20419;-70
2023/11/11 10:07:50;;;;;;;5.25;0.80;;;10.00;99.90;;;;;;5020683;28;20427;-71
2023/11/11 10:10:18;;;;;;;4.40;1.10;;;9.50;99.90;;;;;;5024646;28;20425;-70
2023/11/11 10:12:44;;;;;;;4.40;0.88;;;9.60;99.90;;;;;;5015938;28;20415;-71
2023/11/11 10:15:10;;;;;;;4.10;0.70;;;10.00;99.90;;;;;;5023795;28;20411;-69
2023/11/11 10:17:40;;;;;;;4.20;0.80;;;10.60;99.90;;;;;;5026090;28;20838;-69
2023/11/11 10:20:16;;;;;;;4.07;0.60;;;10.50;99.90;;;;;;5026494;28;20442;-68
2023/11/11 10:22:46;;;;;;;6.30;1.30;;;10.70;99.90;;;;;;5022485;28;20829;-68
2023/11/11 10:25:14;;;;;;;8.70;0.90;;;10.60;99.90;;;;;;5020648;28;20496;-67
2023/11/11 10:27:46;;;;;;;4.70;1.10;;;10.60;99.90;;;;;;5015364;28;20427;-68
2023/11/11 10:30:19;;;;;;;5.55;0.90;;;10.70;99.90;;;;;;5026987;28;20453;-69
2023/11/11 10:32:48;;;;;;;4.80;0.77;;;10.40;99.90;;;;;;5026447;28;20411;-73
2023/11/11 10:35:17;;;;;;;4.50;0.80;;;10.20;99.90;;;;;;5022120;28;20529;-73
2023/11/11 10:37:47;;;;;;;4.03;0.60;;;9.90;99.90;;;;;;5026366;28;20757;-72
2023/11/11 10:40:16;;;;;;;5.20;1.10;;;9.30;99.90;;;;;;5021532;28;20974;-76
2023/11/11 10:42:46;;;;;;;5.30;0.80;;;9.30;99.90;;;;;;5025262;28;20403;-75
2023/11/11 10:45:15;;;;;;;5.70;1.00;;;9.40;99.90;;;;;;5018565;28;20467;-75
2023/11/11 10:47:44;;;;;;;4.40;0.88;;;9.40;99.90;;;;;;5029228;28;20426;-74
2023/11/11 10:50:11;;;;;;;4.80;0.98;;;9.40;99.90;;;;;;5026982;28;20504;-71
2023/11/11 10:52:41;;;;;;;4.75;1.00;;;9.50;99.90;;;;;;5025909;28;20409;-70
2023/11/11 10:55:11;;;;;;;6.72;0.60;;;9.50;99.90;;;;;;5035081;28;20444;-70
2023/11/11 10:57:40;;;;;;;4.20;0.60;;;9.60;99.90;;;;;;5022699;28;20409;-70
2023/11/11 11:00:21;;;;;;;4.30;0.80;;;9.60;99.90;;;;;;5021967;28;20441;-71
2023/11/11 11:02:48;;;;;;;4.90;0.70;;;9.30;99.90;;;;;;5025311;28;20450;-70
2023/11/11 11:05:31;;;;;;;4.88;1.10;;;9.40;99.90;;;;;;5029512;28;20418;-70
2023/11/11 11:08:06;;;;;;;4.53;0.98;;;9.50;99.90;;;;;;5023057;28;20427;-68
2023/11/11 11:10:55;;;;;;;4.70;0.80;;;9.30;99.90;;;;;;5025442;28;20482;-68
2023/11/11 11:13:22;;;;;;;4.50;1.00;;;9.10;99.90;;;;;;5025270;28;20402;-69
2023/11/11 11:15:48;;;;;;;4.40;0.70;;;9.60;99.90;;;;;;5026191;28;20834;-69
2023/11/11 11:18:22;;;;;;;5.15;0.98;;;9.70;99.90;;;;;;5025911;28;20498;-70
2023/11/11 11:20:48;;;;;;;5.68;0.90;;;9.50;99.90;;;;;;5016773;28;20763;-69
2023/11/11 11:23:15;;;;;;;4.10;0.60;;;9.20;99.90;;;;;;5026412;28;20411;-69
2023/11/11 11:25:44;;;;;;;4.50;0.80;;;9.10;99.90;;;;;;5018619;28;20469;-71
2023/11/11 11:28:09;;;;;;;4.50;0.52;;;9.10;99.90;;;;;;5021328;28;20419;-69
2023/11/11 11:30:39;;;;;;;4.20;0.70;;;9.20;99.90;;;;;;5024177;28;20471;-70
2023/11/11 11:33:06;;;;;;;5.00;0.70;;;9.40;99.90;;;;;;5014029;28;20431;-70
2023/11/11 11:35:38;;;;;;;4.72;0.90;;;9.40;99.90;;;;;;5026024;28;20426;-69
2023/11/11 11:38:07;;;;;;;4.57;0.75;;;9.20;99.90;;;;;;5025463;28;21062;-68
2023/11/11 11:40:37;;;;;;;5.30;1.15;;;8.80;99.90;;;;;;5022059;28;20415;-69
2023/11/11 11:43:10;;;;;;;9.20;0.93;;;8.50;99.90;;;;;;5023024;28;21929;-70
2023/11/11 11:45:37;;;;;;;4.70;0.85;;;8.70;99.90;;;;;;5027834;28;20410;-69
2023/11/11 11:48:09;;;;;;;4.90;1.20;;;9.30;99.90;;;;;;5026305;28;20470;-70
2023/11/11 11:50:35;;;;;;;5.80;1.00;;;9.60;99.90;;;;;;5024552;28;20415;-70
2023/11/11 11:53:01;;;;;;;4.80;0.88;;;9.70;99.90;;;;;;5027506;28;20492;-70
2023/11/11 11:55:37;;;;;;;5.80;0.90;;;9.70;99.90;;;;;;5024356;28;20494;-69
2023/11/11 11:58:03;;;;;;;4.70;0.80;;;9.70;99.90;;;;;;5020629;28;20474;-70
2023/11/11 12:00:29;;;;;;;4.60;0.70;;;9.50;99.90;;;;;;5021882;28;20399;-71
2023/11/11 12:02:56;;;;;;;4.67;0.67;;;9.70;99.90;;;;;;5021816;28;20411;-69
2023/11/11 12:05:23;;;;;;;4.10;0.63;;;9.50;99.90;;;;;;5025440;28;20406;-69
2023/11/11 12:07:49;;;;;;;4.40;0.70;;;9.40;99.90;;;;;;5022242;28;20509;-69
2023/11/11 12:10:15;;;;;;;4.60;0.88;;;9.50;99.90;;;;;;5026149;28;20509;-69
2023/11/11 12:12:40;;;;;;;5.20;1.10;;;9.00;99.90;;;;;;5025765;28;20403;-69
2023/11/11 12:15:16;;;;;;;5.83;1.63;;;8.10;99.90;;;;;;5024957;28;20766;-69
2023/11/11 12:17:43;;;;;;;4.93;0.82;;;7.90;99.90;;;;;;5019697;28;20427;-70
2023/11/11 12:20:14;;;;;;;6.68;1.17;;;7.90;99.90;;;;;;5018002;28;20862;-70
2023/11/11 12:22:49;;;;;;;5.30;1.40;;;7.90;99.90;;;;;;5014927;28;20409;-70
2023/11/11 12:25:15;;;;;;;4.38;0.73;;;8.10;99.90;;;;;;5025550;28;20826;-70
2023/11/11 12:27:44;;;;;;;4.67;1.00;;;8.10;99.90;;;;;;5021748;28;20428;-70
2023/11/11 12:30:20;;;;;;;7.35;1.00;;;8.10;99.90;;;;;;5013118;28;20496;-70
2023/11/11 12:33:08;;;;;;;4.10;0.75;;;8.20;99.90;;;;;;5019107;28;20440;-70
2023/11/11 12:35:41;;;;;;;4.60;1.00;;;8.40;99.90;;;;;;5027587;28;20422;-70
2023/11/11 12:38:24;;;;;;;4.65;1.00;;;8.80;99.90;;;;;;5024277;28;20438;-70
2023/11/11 12:40:51;;;;;;;4.70;0.77;;;8.60;99.90;;;;;;5017598;28;20405;-70
2023/11/11 12:43:17;;;;;;;4.80;1.00;;;8.30;99.90;;;;;;5016622;28;20415;-71
2023/11/11 12:45:51;;;;;;;4.60;1.10;;;8.10;99.90;;;;;;5020893;28;20410;-71
2023/11/11 12:48:17;;;;;;;6.25;1.40;;;8.40;99.90;;;;;;5016151;28;20998;-71
2023/11/11 12:50:44;;;;;;;4.53;0.90;;;8.50;99.90;;;;;;5026018;28;20437;-71
2023/11/11 12:53:13;;;;;;;7.40;0.90;;;8.70;99.90;;;;;;5022449;28;20399;-69
2023/11/11 12:55:42;;;;;;;4.38;1.00;;;9.10;99.90;;;;;;5023197;28;20402;-69
2023/11/11 12:58:26;;;;;;;5.00;0.90;;;9.40;99.90;;;;;;5023255;28;20468;-69